Time;durP1;ratioP1;P1;durP2;ratioP2;P2;SDS_P1;SDS_P2;PMS_P1;PMS_P2;Temp;Humidity;BMP_temperature;BMP_pressure;BME280_temperature;BME280_humidity;BME280_pressure;Samples;Min_cycle;Max_cycle;Signal;HPM_P1;HPM_P2
2022/10/05 00:02:15;;;;;;;2.15;0.70;;;;;;;;;;5015117;28;20121;-46
2022/10/05 00:04:40;;;;;;;2.00;0.88;;;;;;;;;;5014969;28;20132;-46
2022/10/05 00:07:10;;;;;;;1.45;0.77;;;;;;;;;;5013887;28;20534;-46
2022/10/05 00:09:36;;;;;;;2.58;0.90;;;;;;;;;;5012935;28;20049;-45
2022/10/05 00:12:16;;;;;;;1.67;0.70;;;;;;;;;;5014473;28;20033;-46
2022/10/05 00:14:42;;;;;;;1.42;0.88;;;;;;;;;;5025811;28;20037;-47
2022/10/05 00:17:21;;;;;;;2.28;0.80;;;;;;;;;;5011458;28;20088;-48
2022/10/05 00:19:51;;;;;;;1.25;0.65;;;;;;;;;;5024668;28;20038;-47
2022/10/05 00:22:28;;;;;;;1.50;0.68;;;;;;;;;;5013932;28;20056;-49
2022/10/05 00:25:01;;;;;;;1.90;0.73;;;;;;;;;;5017839;28;20042;-47
2022/10/05 00:27:37;;;;;;;1.48;0.60;;;;;;;;;;5012779;28;20040;-47
2022/10/05 00:30:17;;;;;;;2.10;0.65;;;;;;;;;;5014833;28;20095;-49
2022/10/05 00:32:43;;;;;;;2.40;0.70;;;;;;;;;;5010816;28;20501;-48
2022/10/05 00:35:10;;;;;;;1.85;0.80;;;;;;;;;;5013429;28;20042;-46
2022/10/05 00:37:36;;;;;;;1.20;0.60;;;;;;;;;;5012157;28;20038;-48
2022/10/05 00:40:03;;;;;;;2.42;0.80;;;;;;;;;;5019966;28;20083;-47
2022/10/05 00:42:40;;;;;;;5.53;0.73;;;;;;;;;;5013089;28;20539;-47
2022/10/05 00:45:12;;;;;;;2.17;0.80;;;;;;;;;;5013923;28;20024;-46
2022/10/05 00:47:52;;;;;;;1.60;0.75;;;;;;;;;;5018252;28;20033;-46
2022/10/05 00:50:24;;;;;;;3.28;0.70;;;;;;;;;;5013279;28;20030;-45
2022/10/05 00:52:58;;;;;;;2.63;0.80;;;;;;;;;;5020894;28;20124;-45
2022/10/05 00:55:52;;;;;;;1.70;0.80;;;;;;;;;;5011233;28;20057;-47
2022/10/05 00:58:34;;;;;;;1.85;0.90;;;;;;;;;;5011429;28;20449;-46
2022/10/05 01:01:09;;;;;;;0.65;0.57;;;;;;;;;;5013670;28;20481;-45
2022/10/05 01:03:55;;;;;;;2.45;0.82;;;;;;;;;;5013472;28;20042;-45
2022/10/05 01:06:43;;;;;;;2.05;0.80;;;;;;;;;;5010843;28;20055;-45
2022/10/05 01:09:38;;;;;;;1.80;0.70;;;;;;;;;;5013005;28;20513;-48
2022/10/05 01:12:26;;;;;;;1.48;0.70;;;;;;;;;;5005752;28;20048;-47
2022/10/05 01:14:54;;;;;;;1.00;0.60;;;;;;;;;;5004041;28;20060;-46
2022/10/05 01:17:27;;;;;;;1.45;0.60;;;;;;;;;;5011212;28;20038;-47
2022/10/05 01:20:21;;;;;;;2.05;0.80;;;;;;;;;;5015211;28;20048;-46
2022/10/05 01:22:46;;;;;;;1.40;0.60;;;;;;;;;;5002779;28;20474;-45
2022/10/05 01:25:18;;;;;;;1.58;0.73;;;;;;;;;;5009179;28;20034;-46
2022/10/05 01:28:04;;;;;;;1.95;0.80;;;;;;;;;;5013216;28;20040;-46
2022/10/05 01:30:43;;;;;;;1.20;0.60;;;;;;;;;;5013669;28;20043;-47
2022/10/05 01:33:26;;;;;;;1.58;0.80;;;;;;;;;;5007848;28;20029;-46
2022/10/05 01:36:01;;;;;;;1.73;0.60;;;;;;;;;;5032854;28;20033;-46
2022/10/05 01:38:52;;;;;;;1.30;0.60;;;;;;;;;;5013166;28;20030;-47
2022/10/05 01:41:31;;;;;;;1.17;0.60;;;;;;;;;;5011705;28;20041;-47
2022/10/05 01:44:02;;;;;;;1.30;0.70;;;;;;;;;;5011075;28;20052;-45
2022/10/05 01:46:37;;;;;;;1.52;0.80;;;;;;;;;;5012970;28;20045;-48
2022/10/05 01:49:14;;;;;;;1.40;0.60;;;;;;;;;;5017938;28;20037;-48
2022/10/05 01:51:50;;;;;;;1.13;0.65;;;;;;;;;;5007460;28;20157;-47
2022/10/05 01:54:21;;;;;;;3.63;0.80;;;;;;;;;;5020064;28;20025;-48
2022/10/05 01:57:10;;;;;;;1.40;0.70;;;;;;;;;;5015612;28;20125;-46
2022/10/05 02:00:05;;;;;;;1.58;0.80;;;;;;;;;;5010382;28;20389;-47
2022/10/05 02:02:34;;;;;;;2.53;0.80;;;;;;;;;;5017272;28;20698;-47
2022/10/05 02:05:15;;;;;;;1.40;0.70;;;;;;;;;;5016989;28;20133;-46
2022/10/05 02:07:48;;;;;;;1.27;0.63;;;;;;;;;;5015142;28;20053;-45
2022/10/05 02:10:21;;;;;;;1.45;0.60;;;;;;;;;;5015321;28;20025;-47
2022/10/05 02:12:48;;;;;;;1.63;0.70;;;;;;;;;;5015259;28;20114;-46
2022/10/05 02:15:17;;;;;;;2.03;0.90;;;;;;;;;;5016947;28;20044;-48
2022/10/05 02:17:48;;;;;;;1.27;0.60;;;;;;;;;;5041199;28;20072;-45
2022/10/05 02:20:19;;;;;;;1.33;0.63;;;;;;;;;;5022261;28;20409;-48
2022/10/05 02:22:48;;;;;;;1.02;0.70;;;;;;;;;;5016184;28;20047;-48
2022/10/05 02:25:21;;;;;;;1.13;0.73;;;;;;;;;;5024671;28;20034;-45
2022/10/05 02:28:00;;;;;;;1.95;0.77;;;;;;;;;;5014872;28;20042;-45
2022/10/05 02:30:27;;;;;;;1.92;0.80;;;;;;;;;;5012758;28;20118;-46
2022/10/05 02:32:56;;;;;;;1.42;0.68;;;;;;;;;;5012004;28;20060;-47
2022/10/05 02:35:22;;;;;;;1.60;0.70;;;;;;;;;;5014098;28;20052;-46
2022/10/05 02:38:25;;;;;;;1.75;0.75;;;;;;;;;;5020923;28;20163;-46
2022/10/05 02:41:09;;;;;;;1.67;0.70;;;;;;;;;;4993827;28;20078;-46
2022/10/05 02:44:12;;;;;;;1.02;0.60;;;;;;;;;;4989628;28;20134;-45
2022/10/05 02:46:40;;;;;;;2.07;0.90;;;;;;;;;;5022525;28;20121;-45
2022/10/05 02:49:12;;;;;;;3.58;0.70;;;;;;;;;;5018817;28;20038;-47
2022/10/05 02:51:54;;;;;;;1.55;0.68;;;;;;;;;;5015688;28;20053;-47
2022/10/05 02:54:35;;;;;;;1.33;0.60;;;;;;;;;;5018464;28;20076;-47
2022/10/05 02:57:18;;;;;;;1.40;0.80;;;;;;;;;;5015448;28;20038;-47
2022/10/05 02:59:49;;;;;;;1.20;0.60;;;;;;;;;;5016376;28;20478;-45
2022/10/05 03:02:23;;;;;;;2.88;0.90;;;;;;;;;;5020545;28;20478;-45
2022/10/05 03:05:07;;;;;;;2.13;0.63;;;;;;;;;;5014073;28;20104;-47
2022/10/05 03:07:39;;;;;;;1.55;0.80;;;;;;;;;;5014474;28;20033;-47
2022/10/05 03:10:19;;;;;;;2.25;0.80;;;;;;;;;;5014274;28;20092;-48
2022/10/05 03:12:57;;;;;;;1.55;0.70;;;;;;;;;;5010111;28;20042;-47
2022/10/05 03:15:41;;;;;;;1.73;0.60;;;;;;;;;;5015324;28;20045;-45
2022/10/05 03:18:19;;;;;;;1.98;0.70;;;;;;;;;;5014701;28;20076;-46
2022/10/05 03:21:23;;;;;;;0.75;0.50;;;;;;;;;;5018046;28;20117;-46
2022/10/05 03:24:06;;;;;;;1.05;0.50;;;;;;;;;;5011058;28;20401;-47
2022/10/05 03:27:10;;;;;;;2.40;0.60;;;;;;;;;;5006776;28;20042;-46
2022/10/05 03:29:40;;;;;;;1.95;0.80;;;;;;;;;;5013346;28;20042;-46
2022/10/05 03:32:30;;;;;;;1.15;0.60;;;;;;;;;;5015193;28;20033;-49
2022/10/05 03:35:09;;;;;;;1.73;0.68;;;;;;;;;;5014788;28;20037;-46
2022/10/05 03:37:44;;;;;;;1.80;0.70;;;;;;;;;;5005567;28;20462;-48
2022/10/05 03:40:20;;;;;;;1.77;0.75;;;;;;;;;;5013460;28;20481;-45
2022/10/05 03:43:19;;;;;;;0.75;0.60;;;;;;;;;;5020772;28;20046;-45
2022/10/05 03:45:52;;;;;;;1.15;0.65;;;;;;;;;;5012320;28;20569;-45
2022/10/05 03:48:58;;;;;;;1.83;0.70;;;;;;;;;;5020216;28;20045;-46
2022/10/05 03:51:37;;;;;;;2.53;0.80;;;;;;;;;;5013331;28;20161;-49
2022/10/05 03:54:14;;;;;;;1.88;0.80;;;;;;;;;;5017924;28;20409;-45
2022/10/05 03:56:51;;;;;;;0.93;0.60;;;;;;;;;;5013257;28;20044;-47
2022/10/05 03:59:33;;;;;;;1.58;0.70;;;;;;;;;;5034564;28;20069;-46
2022/10/05 04:02:05;;;;;;;1.70;0.70;;;;;;;;;;5009203;28;20038;-48
2022/10/05 04:04:41;;;;;;;2.13;0.90;;;;;;;;;;5014036;28;20057;-46
2022/10/05 04:07:36;;;;;;;2.70;0.63;;;;;;;;;;5013171;28;20049;-48
2022/10/05 04:10:06;;;;;;;1.48;0.70;;;;;;;;;;5011607;28;20046;-48
2022/10/05 04:12:35;;;;;;;1.13;0.70;;;;;;;;;;5012897;28;20064;-47
2022/10/05 04:15:15;;;;;;;1.55;0.70;;;;;;;;;;5010880;28;20060;-47
2022/10/05 04:17:55;;;;;;;1.52;0.80;;;;;;;;;;5010827;28;20385;-45
2022/10/05 04:20:26;;;;;;;2.33;0.70;;;;;;;;;;5014313;28;20457;-45
2022/10/05 04:23:09;;;;;;;1.30;0.63;;;;;;;;;;5014777;28;20041;-45
2022/10/05 04:25:40;;;;;;;2.50;0.63;;;;;;;;;;5016626;28;20037;-46
2022/10/05 04:28:15;;;;;;;1.15;0.60;;;;;;;;;;5012359;28;20501;-45
2022/10/05 04:30:44;;;;;;;1.40;0.60;;;;;;;;;;5013858;28;20033;-45
2022/10/05 04:33:11;;;;;;;1.90;0.70;;;;;;;;;;5012724;28;20390;-46
2022/10/05 04:35:44;;;;;;;1.73;0.68;;;;;;;;;;5013421;28;20701;-47
2022/10/05 04:38:30;;;;;;;0.85;0.60;;;;;;;;;;5013920;28;20125;-48
2022/10/05 04:41:17;;;;;;;1.45;0.70;;;;;;;;;;5012586;28;20115;-46
2022/10/05 04:43:54;;;;;;;0.65;0.50;;;;;;;;;;5011828;28;20088;-46
2022/10/05 04:46:36;;;;;;;1.13;0.60;;;;;;;;;;5022484;28;20033;-48
2022/10/05 04:49:20;;;;;;;2.83;0.80;;;;;;;;;;5012719;28;20121;-46
2022/10/05 04:52:04;;;;;;;2.22;0.77;;;;;;;;;;5013924;28;20042;-48
2022/10/05 04:54:58;;;;;;;1.77;0.68;;;;;;;;;;5016670;28;20559;-46
2022/10/05 04:57:42;;;;;;;0.70;0.50;;;;;;;;;;5012285;28;20053;-45
2022/10/05 05:00:21;;;;;;;0.95;0.50;;;;;;;;;;5009410;28;20057;-45
2022/10/05 05:02:46;;;;;;;2.15;0.60;;;;;;;;;;5011457;28;20026;-47
2022/10/05 05:05:37;;;;;;;2.83;0.55;;;;;;;;;;5016707;28;20386;-46
2022/10/05 05:08:05;;;;;;;1.00;0.50;;;;;;;;;;4999199;28;20108;-45
2022/10/05 05:10:56;;;;;;;1.30;0.60;;;;;;;;;;5013372;28;20442;-45
2022/10/05 05:13:50;;;;;;;1.00;0.60;;;;;;;;;;5002353;28;20037;-45
2022/10/05 05:16:38;;;;;;;0.98;0.60;;;;;;;;;;5019842;28;20045;-46
2022/10/05 05:19:33;;;;;;;1.48;0.63;;;;;;;;;;5013904;28;20516;-45
2022/10/05 05:22:06;;;;;;;1.77;0.52;;;;;;;;;;5013139;28;20044;-47
2022/10/05 05:24:53;;;;;;;0.80;0.57;;;;;;;;;;5017366;28;20034;-47
2022/10/05 05:27:28;;;;;;;0.57;0.50;;;;;;;;;;5003956;28;20079;-47
2022/10/05 05:30:25;;;;;;;1.65;0.63;;;;;;;;;;5021845;28;20037;-47
2022/10/05 05:33:09;;;;;;;0.80;0.60;;;;;;;;;;5009514;28;20057;-47
2022/10/05 05:35:43;;;;;;;1.63;0.68;;;;;;;;;;5013269;28;20052;-47
2022/10/05 05:38:26;;;;;;;1.20;0.70;;;;;;;;;;5017163;28;20073;-47
2022/10/05 05:40:54;;;;;;;;;;;;;;;;;;5010130;28;20236;-47
2022/10/05 05:43:24;;;;;;;0.82;0.50;;;;;;;;;;5016927;28;19913;-48
2022/10/05 05:46:01;;;;;;;1.08;0.50;;;;;;;;;;5023642;28;20025;-47
2022/10/05 05:48:32;;;;;;;3.20;0.77;;;;;;;;;;5009481;28;20038;-49
2022/10/05 05:51:07;;;;;;;1.40;0.70;;;;;;;;;;5020495;28;20042;-48
2022/10/05 05:53:50;;;;;;;1.90;0.68;;;;;;;;;;5015328;28;20038;-48
2022/10/05 05:56:37;;;;;;;0.75;0.50;;;;;;;;;;5026281;28;20037;-48
2022/10/05 05:59:10;;;;;;;0.95;0.50;;;;;;;;;;5015548;28;20065;-48
2022/10/05 06:01:39;;;;;;;1.17;0.57;;;;;;;;;;5017391;28;20030;-48
2022/10/05 06:04:44;;;;;;;1.75;0.70;;;;;;;;;;5015411;28;20041;-49
2022/10/05 06:07:15;;;;;;;1.23;0.60;;;;;;;;;;4993115;28;20046;-49
2022/10/05 06:10:14;;;;;;;1.80;0.70;;;;;;;;;;4979477;28;20166;-50
2022/10/05 06:12:46;;;;;;;1.13;0.60;;;;;;;;;;4999011;28;20486;-48
2022/10/05 06:15:40;;;;;;;3.03;0.60;;;;;;;;;;5016272;28;21620;-48
2022/10/05 06:18:18;;;;;;;1.00;0.52;;;;;;;;;;5014949;28;20065;-48
2022/10/05 06:20:57;;;;;;;1.15;0.60;;;;;;;;;;5011315;28;20042;-48
2022/10/05 06:23:35;;;;;;;0.80;0.50;;;;;;;;;;5015071;28;20046;-48
2022/10/05 06:26:03;;;;;;;2.17;0.60;;;;;;;;;;5015821;28;20041;-50
2022/10/05 06:28:29;;;;;;;1.13;0.50;;;;;;;;;;5016424;28;20032;-51
2022/10/05 06:31:28;;;;;;;1.88;0.70;;;;;;;;;;5020588;28;20116;-50
2022/10/05 06:34:14;;;;;;;11.57;0.70;;;;;;;;;;5025620;28;20055;-50
2022/10/05 06:36:57;;;;;;;0.70;0.50;;;;;;;;;;5011576;28;20038;-55
2022/10/05 06:39:32;;;;;;;1.17;0.50;;;;;;;;;;5011663;28;20065;-54
2022/10/05 06:42:16;;;;;;;2.20;0.52;;;;;;;;;;5015829;28;20042;-53
2022/10/05 06:44:59;;;;;;;0.95;0.50;;;;;;;;;;5011078;28;20041;-56
2022/10/05 06:47:35;;;;;;;2.40;0.60;;;;;;;;;;5014460;28;20034;-53
2022/10/05 06:50:07;;;;;;;0.52;0.47;;;;;;;;;;5014341;28;20042;-53
2022/10/05 06:52:35;;;;;;;1.55;0.55;;;;;;;;;;5011260;28;20552;-49
2022/10/05 06:55:06;;;;;;;1.10;0.60;;;;;;;;;;5015575;28;20038;-54
2022/10/05 06:57:49;;;;;;;1.77;0.70;;;;;;;;;;5015565;28;20041;-53
2022/10/05 07:00:23;;;;;;;0.93;0.50;;;;;;;;;;5013076;28;20037;-53
2022/10/05 07:03:16;;;;;;;1.48;0.60;;;;;;;;;;5015579;28;20390;-49
2022/10/05 07:05:50;;;;;;;1.10;0.57;;;;;;;;;;5011639;28;20453;-53
2022/10/05 07:08:37;;;;;;;2.03;0.70;;;;;;;;;;5016739;28;20504;-62
2022/10/05 07:11:20;;;;;;;2.10;0.75;;;;;;;;;;5014885;28;20104;-56
2022/10/05 07:13:46;;;;;;;2.13;0.77;;;;;;;;;;5009427;28;20137;-57
2022/10/05 07:16:36;;;;;;;4.13;0.70;;;;;;;;;;5014976;28;20112;-57
2022/10/05 07:19:14;;;;;;;2.13;0.77;;;;;;;;;;5012091;28;20042;-56
2022/10/05 07:21:51;;;;;;;2.95;0.98;;;;;;;;;;5015009;28;20046;-56
2022/10/05 07:24:28;;;;;;;1.50;0.60;;;;;;;;;;5012589;28;20053;-52
2022/10/05 07:27:20;;;;;;;1.38;0.60;;;;;;;;;;5013944;28;20088;-51
2022/10/05 07:30:05;;;;;;;1.73;0.63;;;;;;;;;;5012116;28;20049;-49
2022/10/05 07:32:55;;;;;;;1.17;0.60;;;;;;;;;;4995549;28;20585;-52
2022/10/05 07:39:01;;;;;;;1.90;0.90;;;;;;;;;;5012098;28;20401;-52
2022/10/05 07:41:50;;;;;;;2.75;0.80;;;;;;;;;;5008237;28;20053;-50
2022/10/05 07:44:21;;;;;;;2.30;0.77;;;;;;;;;;5010315;28;20042;-49
2022/10/05 07:47:05;;;;;;;4.15;0.60;;;;;;;;;;5011573;28;20121;-48
2022/10/05 07:49:38;;;;;;;0.80;0.50;;;;;;;;;;5010558;28;20093;-48
2022/10/05 07:52:10;;;;;;;2.10;0.75;;;;;;;;;;5008461;28;20080;-57
2022/10/05 07:54:36;;;;;;;1.42;0.63;;;;;;;;;;5004662;28;20038;-50
2022/10/05 07:57:13;;;;;;;2.63;0.70;;;;;;;;;;5010911;28;20456;-63
2022/10/05 07:59:55;;;;;;;5.07;0.77;;;;;;;;;;5009413;28;20148;-52
2022/10/05 08:02:32;;;;;;;1.83;0.70;;;;;;;;;;5011175;28;20452;-59
2022/10/05 08:05:09;;;;;;;1.90;0.70;;;;;;;;;;5023168;28;20474;-55
2022/10/05 08:07:35;;;;;;;1.55;0.75;;;;;;;;;;5007026;28;20045;-52
2022/10/05 08:10:13;;;;;;;4.85;0.88;;;;;;;;;;5010213;28;20114;-53
2022/10/05 08:13:29;;;;;;;1.83;0.68;;;;;;;;;;5024090;28;20077;-53
2022/10/05 08:15:57;;;;;;;2.08;0.77;;;;;;;;;;5007354;28;20046;-55
2022/10/05 08:18:41;;;;;;;2.55;0.95;;;;;;;;;;5011653;28;20042;-61
2022/10/05 08:21:10;;;;;;;6.60;1.30;;;;;;;;;;5002198;28;20048;-53
2022/10/05 08:23:45;;;;;;;4.38;0.68;;;;;;;;;;5012168;28;20137;-57
2022/10/05 08:26:35;;;;;;;2.47;0.98;;;;;;;;;;5012407;28;20041;-55
2022/10/05 08:29:20;;;;;;;2.92;0.80;;;;;;;;;;5018814;28;20091;-61
2022/10/05 08:31:48;;;;;;;2.40;0.75;;;;;;;;;;5008778;28;20042;-56
2022/10/05 08:34:25;;;;;;;3.35;0.77;;;;;;;;;;5012417;28;20045;-58
2022/10/05 08:37:04;;;;;;;2.70;1.00;;;;;;;;;;5000951;28;20029;-59
2022/10/05 08:39:39;;;;;;;2.17;0.88;;;;;;;;;;5009533;28;20595;-65
2022/10/05 08:42:37;;;;;;;2.55;1.00;;;;;;;;;;5008547;28;20038;-60
2022/10/05 08:45:39;;;;;;;2.53;0.88;;;;;;;;;;5005820;28;20058;-59
2022/10/05 08:48:23;;;;;;;4.25;0.93;;;;;;;;;;5004652;28;20178;-61
2022/10/05 08:50:58;;;;;;;3.85;0.90;;;;;;;;;;5009998;28;20050;-55
2022/10/05 08:53:41;;;;;;;4.97;0.90;;;;;;;;;;5004776;28;20076;-53
2022/10/05 08:56:07;;;;;;;;;;;;;;;;;;5012118;28;20030;-56
2022/10/05 08:58:50;;;;;;;2.90;1.02;;;;;;;;;;5022688;28;20343;-59
2022/10/05 09:01:18;;;;;;;2.80;0.80;;;;;;;;;;5013891;28;20751;-55
2022/10/05 09:04:20;;;;;;;11.27;1.40;;;;;;;;;;5017422;28;20084;-56
2022/10/05 09:07:02;;;;;;;6.07;1.00;;;;;;;;;;5008605;28;20038;-70
2022/10/05 09:09:53;;;;;;;9.85;1.23;;;;;;;;;;5005138;28;20367;-63
2022/10/05 09:13:02;;;;;;;9.98;1.60;;;;;;;;;;5008842;28;20037;-61
2022/10/05 09:15:59;;;;;;;6.53;0.93;;;;;;;;;;4995516;28;20057;-55
2022/10/05 09:18:45;;;;;;;5.28;1.30;;;;;;;;;;5004024;28;20129;-55
2022/10/05 09:21:19;;;;;;;5.30;0.90;;;;;;;;;;5008157;28;20045;-52
2022/10/05 09:23:48;;;;;;;3.58;0.80;;;;;;;;;;5000560;28;20508;-54
2022/10/05 09:26:51;;;;;;;5.07;1.30;;;;;;;;;;5008492;28;20048;-54
2022/10/05 09:29:35;;;;;;;2.72;0.73;;;;;;;;;;5004578;28;20428;-53
2022/10/05 09:32:29;;;;;;;4.50;1.17;;;;;;;;;;5009226;28;20046;-52
2022/10/05 09:35:00;;;;;;;2.47;0.80;;;;;;;;;;5000560;28;20042;-56
2022/10/05 09:37:45;;;;;;;2.03;0.80;;;;;;;;;;5007103;28;20096;-56
2022/10/05 09:40:22;;;;;;;3.83;1.02;;;;;;;;;;5008379;28;20441;-53
2022/10/05 09:43:06;;;;;;;2.50;0.98;;;;;;;;;;5008661;28;20564;-56
2022/10/05 09:45:37;;;;;;;;;;;;;;;;;;4995483;28;20050;-55
2022/10/05 09:48:44;;;;;;;2.15;0.82;;;;;;;;;;5008332;28;19921;-55
2022/10/05 09:51:28;;;;;;;2.90;1.02;;;;;;;;;;5005595;28;20041;-57
2022/10/05 09:54:14;;;;;;;2.95;1.17;;;;;;;;;;5005716;28;20417;-53
2022/10/05 09:57:04;;;;;;;3.15;1.20;;;;;;;;;;4997113;28;20493;-55
2022/10/05 09:59:48;;;;;;;4.55;1.02;;;;;;;;;;5006707;28;20038;-55
2022/10/05 10:02:13;;;;;;;4.68;0.90;;;;;;;;;;5008300;28;20405;-56
2022/10/05 10:05:13;;;;;;;4.53;1.17;;;;;;;;;;5008370;28;20058;-55
2022/10/05 10:07:56;;;;;;;2.85;0.90;;;;;;;;;;4999061;28;20038;-55
2022/10/05 10:10:37;;;;;;;3.00;0.90;;;;;;;;;;4998480;28;20038;-58
2022/10/05 10:13:40;;;;;;;8.18;1.27;;;;;;;;;;5005338;28;20076;-56
2022/10/05 10:16:14;;;;;;;7.32;1.33;;;;;;;;;;5004056;28;20065;-54
2022/10/05 10:18:58;;;;;;;8.55;1.02;;;;;;;;;;5012351;28;20393;-55
2022/10/05 10:21:28;;;;;;;5.43;1.35;;;;;;;;;;5012679;28;20069;-56
2022/10/05 10:24:14;;;;;;;4.50;0.93;;;;;;;;;;5012391;28;20049;-61
2022/10/05 10:26:51;;;;;;;4.72;0.98;;;;;;;;;;5012428;28;20055;-57
2022/10/05 10:29:17;;;;;;;5.45;0.93;;;;;;;;;;4992713;28;20037;-54
2022/10/05 10:31:53;;;;;;;6.13;1.00;;;;;;;;;;5003333;28;20482;-54
2022/10/05 10:34:36;;;;;;;5.00;1.17;;;;;;;;;;5002632;28;20042;-56
2022/10/05 10:37:15;;;;;;;2.60;1.00;;;;;;;;;;5008725;28;20049;-54
2022/10/05 10:40:08;;;;;;;2.80;1.05;;;;;;;;;;5011022;28;20049;-54
2022/10/05 10:42:55;;;;;;;7.30;1.30;;;;;;;;;;5011405;28;20054;-54
2022/10/05 10:45:41;;;;;;;2.88;0.93;;;;;;;;;;5005514;28;20046;-57
2022/10/05 10:48:28;;;;;;;4.10;1.00;;;;;;;;;;5000816;28;20050;-54
2022/10/05 10:51:06;;;;;;;3.13;1.00;;;;;;;;;;5011249;28;20054;-55
2022/10/05 10:53:43;;;;;;;3.25;1.10;;;;;;;;;;5011902;28;20141;-54
2022/10/05 10:56:46;;;;;;;1.88;0.90;;;;;;;;;;5005881;28;20041;-56
2022/10/05 10:59:22;;;;;;;2.67;1.05;;;;;;;;;;5008523;28;20046;-63
2022/10/05 11:02:28;;;;;;;3.35;0.90;;;;;;;;;;5011990;28;20046;-73
2022/10/05 11:04:57;;;;;;;3.70;1.25;;;;;;;;;;4987943;28;20049;-57
2022/10/05 11:07:44;;;;;;;1.77;0.80;;;;;;;;;;5011674;28;20128;-56
2022/10/05 11:10:30;;;;;;;2.05;0.63;;;;;;;;;;5010775;28;20931;-56
2022/10/05 11:13:24;;;;;;;2.05;0.80;;;;;;;;;;5004684;28;20042;-53
2022/10/05 11:16:14;;;;;;;1.60;0.80;;;;;;;;;;5010666;28;20057;-56
2022/10/05 11:18:51;;;;;;;4.88;1.10;;;;;;;;;;5001654;28;20505;-55
2022/10/05 11:21:29;;;;;;;2.78;0.80;;;;;;;;;;5019603;28;20458;-56
2022/10/05 11:24:14;;;;;;;4.13;1.10;;;;;;;;;;5005021;28;20037;-55
2022/10/05 11:27:13;;;;;;;2.58;1.10;;;;;;;;;;5005427;28;20065;-55
2022/10/05 11:30:11;;;;;;;2.85;0.90;;;;;;;;;;5011264;28;20393;-51
2022/10/05 11:32:48;;;;;;;2.58;0.88;;;;;;;;;;4991362;28;20050;-54
2022/10/05 11:35:23;;;;;;;4.60;0.80;;;;;;;;;;5010987;28;20072;-57
2022/10/05 11:38:14;;;;;;;4.95;0.90;;;;;;;;;;5010822;28;20053;-56
2022/10/05 11:41:12;;;;;;;2.28;0.80;;;;;;;;;;5009446;28;20041;-56
2022/10/05 11:43:47;;;;;;;3.10;0.80;;;;;;;;;;5005108;28;20391;-55
2022/10/05 11:46:19;;;;;;;3.67;0.77;;;;;;;;;;5009505;28;20076;-56
2022/10/05 11:49:02;;;;;;;4.30;0.90;;;;;;;;;;5009507;28;20088;-54
2022/10/05 11:51:37;;;;;;;1.60;0.90;;;;;;;;;;4999606;28;20040;-56
2022/10/05 11:54:05;;;;;;;8.93;1.52;;;;;;;;;;4994448;28;20045;-55
2022/10/05 11:56:54;;;;;;;1.83;0.77;;;;;;;;;;5006679;28;20042;-57
2022/10/05 11:59:28;;;;;;;5.65;0.70;;;;;;;;;;5009868;28;20037;-57
2022/10/05 12:02:03;;;;;;;2.50;0.90;;;;;;;;;;5007675;28;20037;-56
2022/10/05 12:04:51;;;;;;;3.30;0.70;;;;;;;;;;5009053;28;20053;-57
2022/10/05 12:07:23;;;;;;;2.33;0.60;;;;;;;;;;5008823;28;20050;-58
2022/10/05 12:10:15;;;;;;;2.28;0.90;;;;;;;;;;5001056;28;20065;-55
2022/10/05 12:13:09;;;;;;;2.33;1.13;;;;;;;;;;4997811;28;20050;-56
2022/10/05 12:15:58;;;;;;;1.85;0.93;;;;;;;;;;5005569;28;20048;-57
2022/10/05 12:18:30;;;;;;;1.10;0.50;;;;;;;;;;5009103;28;20088;-57
2022/10/05 12:21:11;;;;;;;1.52;0.63;;;;;;;;;;5004175;28;20099;-57
2022/10/05 12:23:41;;;;;;;2.00;0.70;;;;;;;;;;5004019;28;20477;-54
2022/10/05 12:26:11;;;;;;;8.30;1.05;;;;;;;;;;4994920;28;20042;-52
2022/10/05 12:28:53;;;;;;;5.43;0.90;;;;;;;;;;4994777;28;20193;-56
2022/10/05 12:31:38;;;;;;;7.95;0.90;;;;;;;;;;5009460;28;20065;-54
2022/10/05 12:34:22;;;;;;;2.42;0.80;;;;;;;;;;4998312;28;20042;-51
2022/10/05 12:37:03;;;;;;;5.07;0.80;;;;;;;;;;5006983;28;20041;-57
2022/10/05 12:39:40;;;;;;;6.32;1.85;;;;;;;;;;5000015;28;20398;-56
2022/10/05 12:42:17;;;;;;;6.75;1.00;;;;;;;;;;5005602;28;20041;-57
2022/10/05 12:44:45;;;;;;;5.43;0.82;;;;;;;;;;5007185;28;20405;-55
2022/10/05 12:47:43;;;;;;;1.83;0.75;;;;;;;;;;5007705;28;20050;-57
2022/10/05 12:50:11;;;;;;;4.20;0.80;;;;;;;;;;5009597;28;20564;-54
2022/10/05 12:52:57;;;;;;;2.00;0.80;;;;;;;;;;5009054;28;20049;-57
2022/10/05 12:55:37;;;;;;;15.48;1.75;;;;;;;;;;4990927;28;20057;-58
2022/10/05 12:58:09;;;;;;;5.68;1.20;;;;;;;;;;5013121;28;20034;-56
2022/10/05 13:00:42;;;;;;;3.85;1.10;;;;;;;;;;5005489;28;20563;-59
2022/10/05 13:03:22;;;;;;;5.00;1.13;;;;;;;;;;5026870;28;20038;-56
2022/10/05 13:05:54;;;;;;;3.38;1.10;;;;;;;;;;5007451;28;20050;-59
2022/10/05 13:08:26;;;;;;;2.28;0.98;;;;;;;;;;5010409;28;20042;-61
2022/10/05 13:11:00;;;;;;;3.03;1.08;;;;;;;;;;5001277;28;20084;-60
2022/10/05 13:13:34;;;;;;;;;;;;;;;;;;5021902;28;20066;-60
2022/10/05 13:16:06;;;;;;;5.03;1.05;;;;;;;;;;5011371;28;19975;-60
2022/10/05 13:18:37;;;;;;;2.70;0.75;;;;;;;;;;5009236;28;20103;-59
2022/10/05 13:21:06;;;;;;;3.10;0.80;;;;;;;;;;5006584;28;20070;-60
2022/10/05 13:23:37;;;;;;;2.40;0.90;;;;;;;;;;5010002;28;20037;-59
2022/10/05 13:26:18;;;;;;;1.70;0.90;;;;;;;;;;5010240;28;20057;-60
2022/10/05 13:29:08;;;;;;;2.45;0.75;;;;;;;;;;5004385;28;20493;-59
2022/10/05 13:31:42;;;;;;;1.65;0.90;;;;;;;;;;5003465;28;20042;-59
2022/10/05 13:34:20;;;;;;;;;;;;;;;;;;5009500;28;20042;-59
2022/10/05 13:37:06;;;;;;;5.40;0.90;;;;;;;;;;5001073;28;20395;-59
2022/10/05 13:40:00;;;;;;;2.35;0.90;;;;;;;;;;5009039;28;20073;-59
2022/10/05 13:42:51;;;;;;;1.40;0.70;;;;;;;;;;5001609;28;20378;-58
2022/10/05 13:45:25;;;;;;;12.52;1.20;;;;;;;;;;5018632;28;20100;-58
2022/10/05 13:48:09;;;;;;;3.72;0.73;;;;;;;;;;5030157;28;20121;-57
2022/10/05 13:50:37;;;;;;;;;;;;;;;;;;5011588;28;21131;-57
2022/10/05 13:53:10;;;;;;;1.13;0.55;;;;;;;;;;5024387;28;20059;-57
2022/10/05 13:55:45;;;;;;;0.95;0.50;;;;;;;;;;5002825;28;20046;-58
2022/10/05 13:58:21;;;;;;;7.75;1.30;;;;;;;;;;5021557;28;20045;-58
2022/10/05 14:00:57;;;;;;;4.55;0.75;;;;;;;;;;5008455;28;20488;-57
2022/10/05 14:03:23;;;;;;;0.88;0.50;;;;;;;;;;5012662;28;20038;-58
2022/10/05 14:06:00;;;;;;;4.00;0.80;;;;;;;;;;5001494;28;20053;-58
2022/10/05 14:08:28;;;;;;;1.90;0.60;;;;;;;;;;5005978;28;20117;-58
2022/10/05 14:10:55;;;;;;;6.93;0.93;;;;;;;;;;5014010;28;20049;-58
2022/10/05 14:13:26;;;;;;;2.05;0.60;;;;;;;;;;5009709;28;20041;-58
2022/10/05 14:16:13;;;;;;;0.65;0.40;;;;;;;;;;5012759;28;20386;-58
2022/10/05 14:19:05;;;;;;;1.98;0.63;;;;;;;;;;5010545;28;20390;-58
2022/10/05 14:21:32;;;;;;;2.22;0.70;;;;;;;;;;5002168;28;20038;-59
2022/10/05 14:24:35;;;;;;;4.22;0.52;;;;;;;;;;5000596;28;20033;-58
2022/10/05 14:27:18;;;;;;;1.60;0.70;;;;;;;;;;5011429;28;20030;-58
2022/10/05 14:29:43;;;;;;;1.27;0.68;;;;;;;;;;5012726;28;20045;-58
2022/10/05 14:32:17;;;;;;;1.23;0.55;;;;;;;;;;5009014;28;20044;-59
2022/10/05 14:34:42;;;;;;;2.20;0.70;;;;;;;;;;5012342;28;20049;-59
2022/10/05 14:37:30;;;;;;;3.00;0.75;;;;;;;;;;5012070;28;20042;-59
2022/10/05 14:40:00;;;;;;;2.67;0.60;;;;;;;;;;4991801;28;20042;-57
2022/10/05 14:42:28;;;;;;;8.02;0.60;;;;;;;;;;4998348;28;20608;-65
2022/10/05 14:44:58;;;;;;;1.92;0.52;;;;;;;;;;5020462;28;20065;-58
2022/10/05 14:47:29;;;;;;;4.32;0.70;;;;;;;;;;5002315;28;20042;-82
2022/10/05 14:50:20;;;;;;;2.20;0.80;;;;;;;;;;5019536;28;20561;-57
2022/10/05 14:52:59;;;;;;;3.60;0.75;;;;;;;;;;5003700;28;20055;-58
2022/10/05 14:55:34;;;;;;;1.65;0.60;;;;;;;;;;5004483;28;20117;-58
2022/10/05 14:58:24;;;;;;;3.78;1.02;;;;;;;;;;5008575;28;20116;-57
2022/10/05 15:01:11;;;;;;;3.88;0.68;;;;;;;;;;5006918;28;20379;-59
2022/10/05 15:03:55;;;;;;;4.30;0.90;;;;;;;;;;5006645;28;20030;-57
2022/10/05 15:06:32;;;;;;;3.63;0.70;;;;;;;;;;5010602;28;20128;-58
2022/10/05 15:09:15;;;;;;;2.78;0.65;;;;;;;;;;5007680;28;20034;-57
2022/10/05 15:11:52;;;;;;;1.70;0.77;;;;;;;;;;5009881;28;20505;-57
2022/10/05 15:14:23;;;;;;;1.50;0.70;;;;;;;;;;5006998;28;20038;-58
2022/10/05 15:16:52;;;;;;;3.03;0.70;;;;;;;;;;5010819;28;20405;-57
2022/10/05 15:19:38;;;;;;;5.63;2.92;;;;;;;;;;5002161;28;20211;-57
2022/10/05 15:22:42;;;;;;;1.83;0.52;;;;;;;;;;5006360;28;20053;-56
2022/10/05 15:25:11;;;;;;;;;;;;;;;;;;5003793;28;20803;-57
2022/10/05 15:28:00;;;;;;;4.75;0.82;;;;;;;;;;5008086;28;20312;-57
2022/10/05 15:30:26;;;;;;;3.10;0.70;;;;;;;;;;5005331;28;20036;-57
2022/10/05 15:33:26;;;;;;;1.33;0.57;;;;;;;;;;5007351;28;20042;-57
2022/10/05 15:35:54;;;;;;;0.93;0.50;;;;;;;;;;5005982;28;20051;-55
2022/10/05 15:38:25;;;;;;;2.53;0.63;;;;;;;;;;5011026;28;20402;-57
2022/10/05 15:41:14;;;;;;;2.58;0.77;;;;;;;;;;5009556;28;20092;-68
2022/10/05 15:44:14;;;;;;;2.95;0.80;;;;;;;;;;5009455;28;20041;-58
2022/10/05 15:46:43;;;;;;;3.40;0.80;;;;;;;;;;5010714;28;20029;-57
2022/10/05 15:49:24;;;;;;;2.03;0.95;;;;;;;;;;5011318;28;20061;-57
2022/10/05 15:51:57;;;;;;;1.48;0.60;;;;;;;;;;4997425;28;20121;-57
2022/10/05 15:54:40;;;;;;;2.60;1.43;;;;;;;;;;5009858;28;20046;-58
2022/10/05 15:57:09;;;;;;;2.88;0.52;;;;;;;;;;5004835;28;20359;-57
2022/10/05 15:59:40;;;;;;;5.85;1.00;;;;;;;;;;4996476;28;20045;-57
2022/10/05 16:02:15;;;;;;;2.67;0.57;;;;;;;;;;4997936;28;20033;-58
2022/10/05 16:04:59;;;;;;;1.48;0.43;;;;;;;;;;5003802;28;20046;-58